createdAt,value
2022-10-25T00:01:36.599Z,97731.13
2022-10-25T00:04:03.368Z,97735.81
2022-10-25T00:06:29.653Z,97744.50
2022-10-25T00:08:56.154Z,97737.97
2022-10-25T00:11:25.059Z,97735.69
2022-10-25T00:13:53.695Z,97732.94
2022-10-25T00:16:23.972Z,97734.16
2022-10-25T00:18:50.892Z,97734.66
2022-10-25T00:21:17.369Z,97737.00
2022-10-25T00:23:43.723Z,97735.47
2022-10-25T00:26:11.215Z,97733.91
2022-10-25T00:28:38.356Z,97731.59
2022-10-25T00:31:10.739Z,97737.84
2022-10-25T00:33:38.043Z,97733.56
2022-10-25T00:36:05.543Z,97737.97
2022-10-25T00:38:31.920Z,97748.16
2022-10-25T00:40:58.487Z,97755.97
2022-10-25T00:43:52.308Z,97754.91
2022-10-25T00:46:21.513Z,97759.63
2022-10-25T00:48:53.459Z,97757.75
2022-10-25T00:51:24.225Z,97757.75
2022-10-25T00:53:50.903Z,97762.88
2022-10-25T00:56:21.343Z,97764.16
2022-10-25T00:58:54.132Z,97760.59
2022-10-25T01:01:21.565Z,97767.06
2022-10-25T01:03:52.334Z,97758.84
2022-10-25T01:06:23.574Z,97759.28
2022-10-25T01:08:52.711Z,97762.13
2022-10-25T01:11:19.995Z,97757.56
2022-10-25T01:13:47.598Z,97747.09
2022-10-25T01:16:24.032Z,97757.78
2022-10-25T01:19:05.983Z,97766.50
2022-10-25T01:21:43.877Z,97768.91
2022-10-25T01:24:41.003Z,97761.00
2022-10-25T01:27:19.466Z,97761.66
2022-10-25T01:30:06.164Z,97757.03
2022-10-25T01:32:46.510Z,97753.25
2022-10-25T01:35:36.305Z,97746.31
2022-10-25T01:38:23.051Z,97751.06
2022-10-25T01:41:28.696Z,97745.25
2022-10-25T01:44:03.838Z,97749.28
2022-10-25T01:46:34.458Z,97743.53
2022-10-25T01:49:08.576Z,97739.25
2022-10-25T01:51:38.131Z,97748.28
2022-10-25T01:54:17.992Z,97754.66
2022-10-25T01:57:16.618Z,97749.25
2022-10-25T01:59:58.259Z,97741.41
2022-10-25T02:02:32.710Z,97743.06
2022-10-25T02:05:15.956Z,97733.84
2022-10-25T02:07:47.843Z,97745.56
2022-10-25T02:10:25.188Z,97741.28
2022-10-25T02:13:10.192Z,97736.28
2022-10-25T02:15:58.463Z,97734.69
2022-10-25T02:20:58.704Z,97737.13
2022-10-25T02:23:26.288Z,97724.31
2022-10-25T02:25:53.982Z,97725.22
2022-10-25T02:28:23.772Z,97734.25
2022-10-25T02:30:52.460Z,97739.69
2022-10-25T02:33:18.738Z,97743.63
2022-10-25T02:35:45.083Z,97746.75
2022-10-25T02:38:11.516Z,97754.56
2022-10-25T02:40:37.819Z,97752.28
2022-10-25T02:43:04.131Z,97755.75
2022-10-25T02:45:30.426Z,97752.41
2022-10-25T02:47:56.731Z,97750.03
2022-10-25T02:50:23.011Z,97752.78
2022-10-25T02:52:49.561Z,97757.06
2022-10-25T02:55:16.178Z,97757.47
2022-10-25T02:57:42.470Z,97752.41
2022-10-25T03:00:10.130Z,97762.56
2022-10-25T03:02:36.463Z,97767.34
2022-10-25T03:05:02.774Z,97771.59
2022-10-25T03:07:29.146Z,97759.47
2022-10-25T03:09:55.439Z,97764.19
2022-10-25T03:12:21.718Z,97761.13
2022-10-25T03:14:47.997Z,97757.97
2022-10-25T03:17:14.294Z,97757.22
2022-10-25T03:19:40.584Z,97755.69
2022-10-25T03:22:06.912Z,97760.34
2022-10-25T03:24:33.225Z,97755.75
2022-10-25T03:27:00.340Z,97763.09
2022-10-25T03:29:26.642Z,97771.25
2022-10-25T03:31:52.927Z,97779.47
2022-10-25T03:34:19.238Z,97790.44
2022-10-25T03:36:45.510Z,97790.00
2022-10-25T03:39:11.854Z,97777.19
2022-10-25T03:41:38.151Z,97783.03
2022-10-25T03:44:04.703Z,97785.41
2022-10-25T03:46:30.983Z,97783.47
2022-10-25T03:48:57.276Z,97786.22
2022-10-25T03:51:23.603Z,97788.94
2022-10-25T03:53:50.546Z,97794.81
2022-10-25T03:56:16.853Z,97795.63
2022-10-25T03:58:43.211Z,97793.28
2022-10-25T04:01:09.841Z,97803.81
2022-10-25T04:03:36.938Z,97799.53
2022-10-25T04:06:03.346Z,97796.31
2022-10-25T04:08:29.661Z,97801.81
2022-10-25T04:10:55.972Z,97794.00
2022-10-25T04:13:22.254Z,97808.00
2022-10-25T04:15:48.643Z,97791.22
2022-10-25T04:18:14.970Z,97799.03
2022-10-25T04:20:41.276Z,97800.59
2022-10-25T04:23:07.893Z,97801.78
2022-10-25T04:25:34.520Z,97798.28
2022-10-25T04:28:00.969Z,97794.41
2022-10-25T04:30:27.493Z,97802.97
2022-10-25T04:32:53.851Z,97802.59
2022-10-25T04:35:20.140Z,97805.72
2022-10-25T04:37:46.484Z,97798.34
2022-10-25T04:40:13.026Z,97795.69
2022-10-25T04:42:39.351Z,97802.31
2022-10-25T04:45:06.068Z,97804.66
2022-10-25T04:47:33.803Z,97800.31
2022-10-25T04:50:00.207Z,97796.06
2022-10-25T04:52:28.691Z,97796.81
2022-10-25T04:54:55.068Z,97799.19
2022-10-25T04:57:21.400Z,97794.91
2022-10-25T04:59:47.728Z,97793.34
2022-10-25T05:02:14.591Z,97794.94
2022-10-25T05:04:42.065Z,97811.34
2022-10-25T05:07:08.359Z,97810.59
2022-10-25T05:09:34.647Z,97802.75
2022-10-25T05:12:00.948Z,97802.75
2022-10-25T05:14:27.261Z,97805.09
2022-10-25T05:16:53.559Z,97811.72
2022-10-25T05:19:19.888Z,97813.66
2022-10-25T05:21:47.627Z,97809.78
2022-10-25T05:24:13.914Z,97823.44
2022-10-25T05:26:40.257Z,97832.81
2022-10-25T05:29:10.134Z,97834.75
2022-10-25T05:31:38.531Z,97845.28
2022-10-25T05:34:04.873Z,97840.59
2022-10-25T05:36:33.210Z,97839.00
2022-10-25T05:39:00.932Z,97841.00
2022-10-25T05:41:29.654Z,97847.22
2022-10-25T05:43:59.689Z,97844.91
2022-10-25T05:46:26.034Z,97848.81
2022-10-25T05:48:53.531Z,97848.44
2022-10-25T05:51:34.691Z,97842.25
2022-10-25T05:54:04.542Z,97853.50
2022-10-25T05:56:32.273Z,97851.56
2022-10-25T05:59:02.118Z,97871.84
2022-10-25T06:01:28.469Z,97864.44
2022-10-25T06:03:55.556Z,97862.88
2022-10-25T06:06:23.158Z,97867.97
2022-10-25T06:08:51.575Z,97862.09
2022-10-25T06:11:19.483Z,97865.63
2022-10-25T06:13:46.231Z,97871.50
2022-10-25T06:16:15.319Z,97876.16
2022-10-25T06:18:42.974Z,97880.84
2022-10-25T06:21:12.470Z,97882.38
2022-10-25T06:23:41.364Z,97882.03
2022-10-25T06:26:13.431Z,97885.50
2022-10-25T06:28:40.579Z,97895.66
2022-10-25T06:31:24.666Z,97899.50
2022-10-25T06:34:01.564Z,97895.66
2022-10-25T07:26:37.361Z,97937.16
2022-10-25T07:29:06.770Z,97920.28
2022-10-25T07:31:39.731Z,97929.50
2022-10-25T07:34:06.886Z,97934.03
2022-10-25T07:36:33.886Z,97928.06
2022-10-25T07:39:02.836Z,97922.84
2022-10-25T07:41:31.636Z,97927.22
2022-10-25T07:43:59.223Z,97920.09
2022-10-25T07:46:25.542Z,97926.94
2022-10-25T07:48:55.502Z,97939.19
2022-10-25T07:51:23.218Z,97944.28
2022-10-25T07:53:49.934Z,97944.69
2022-10-25T07:56:22.356Z,97941.22
2022-10-25T07:58:50.392Z,97942.69
2022-10-25T08:01:22.416Z,97937.97
2022-10-25T08:03:49.343Z,97934.50
2022-10-25T08:06:18.798Z,97924.38
2022-10-25T08:08:45.364Z,97925.81
2022-10-25T08:11:11.779Z,97924.84
2022-10-25T08:13:40.210Z,97929.84
2022-10-25T08:16:09.829Z,97934.16
2022-10-25T08:18:36.147Z,97938.84
2022-10-25T08:21:04.165Z,97932.38
2022-10-25T08:23:32.497Z,97946.34
2022-10-25T08:25:59.742Z,97941.84
2022-10-25T08:31:07.173Z,97934.59
2022-10-25T08:33:34.039Z,97947.38
2022-10-25T08:36:02.069Z,97936.56
2022-10-25T08:38:28.679Z,97935.94
2022-10-25T08:41:14.647Z,97942.22
2022-10-25T08:43:55.895Z,97944.19
2022-10-25T08:46:29.654Z,97936.50
2022-10-25T08:49:09.647Z,97932.28
2022-10-25T08:51:39.275Z,97933.75
2022-10-25T08:54:23.157Z,97934.53
2022-10-25T08:57:10.556Z,97931.66
2022-10-25T08:59:42.236Z,97934.41
2022-10-25T09:02:21.954Z,97932.19
2022-10-25T09:04:48.528Z,97930.50
2022-10-25T09:07:24.981Z,97927.56
2022-10-25T09:10:25.468Z,97927.72
2022-10-25T09:13:05.862Z,97928.50
2022-10-25T09:15:54.895Z,97929.59
2022-10-25T09:18:29.738Z,97928.47
2022-10-25T09:20:57.982Z,97922.34
2022-10-25T09:23:32.275Z,97926.28
2022-10-25T09:26:20.495Z,97931.09
2022-10-25T09:28:57.824Z,97937.09
2022-10-25T09:31:25.478Z,97931.97
2022-10-25T09:34:01.645Z,97922.06
2022-10-25T09:36:36.044Z,97928.81
2022-10-25T09:39:08.263Z,97924.84
2022-10-25T09:41:42.163Z,97921.28
2022-10-25T09:44:11.160Z,97925.59
2022-10-25T09:46:48.052Z,97927.50
2022-10-25T09:49:29.144Z,97925.91
2022-10-25T09:52:26.838Z,97933.22
2022-10-25T09:54:57.307Z,97941.97
2022-10-25T09:57:23.607Z,97940.22
2022-10-25T09:59:51.351Z,97935.97
2022-10-25T10:02:24.617Z,97939.44
2022-10-25T10:04:51.568Z,97940.69
2022-10-25T10:07:23.727Z,97948.06
2022-10-25T10:09:53.511Z,97934.47
2022-10-25T10:13:01.642Z,97935.63
2022-10-25T10:15:31.707Z,97932.25
2022-10-25T10:18:21.243Z,97939.47
2022-10-25T10:21:01.277Z,97937.34
2022-10-25T10:23:31.676Z,97938.06
2022-10-25T10:26:02.584Z,97943.94
2022-10-25T10:28:29.062Z,97943.22
2022-10-25T10:30:58.274Z,97939.19
2022-10-25T10:33:30.284Z,97939.13
2022-10-25T10:35:56.597Z,97930.00
2022-10-25T10:38:29.100Z,97931.22
2022-10-25T10:41:24.500Z,97935.63
2022-10-25T10:43:51.658Z,97928.81
2022-10-25T10:46:24.597Z,97928.44
2022-10-25T10:48:55.315Z,97916.25
2022-10-25T10:51:44.096Z,97921.78
2022-10-25T10:54:23.118Z,97917.09
2022-10-25T10:57:06.452Z,97911.75
2022-10-25T10:59:35.210Z,97913.75
2022-10-25T11:02:18.909Z,97907.19
2022-10-25T11:04:49.881Z,97907.72
2022-10-25T11:07:26.010Z,97905.53
2022-10-25T11:09:52.354Z,97901.22
2022-10-25T11:12:18.776Z,97905.47
2022-10-25T11:14:45.152Z,97898.94
2022-10-25T11:17:14.279Z,97893.13
2022-10-25T11:20:22.226Z,97903.84
2022-10-25T11:23:08.322Z,97892.34
2022-10-25T11:25:40.176Z,97895.97
2022-10-25T11:28:25.092Z,97881.06
2022-10-25T11:31:05.162Z,97880.75
2022-10-25T11:34:04.641Z,97882.09
2022-10-25T11:36:41.906Z,97889.31
2022-10-25T11:39:50.420Z,97878.91
2022-10-25T11:42:35.495Z,97888.41
2022-10-25T11:45:14.027Z,97875.06
2022-10-25T11:47:52.463Z,97880.75
2022-10-25T11:50:37.656Z,97872.13
2022-10-25T11:53:23.792Z,97871.00
2022-10-25T11:55:59.267Z,97873.28
2022-10-25T11:58:37.472Z,97873.03
2022-10-25T12:01:34.807Z,97871.75
2022-10-25T12:04:26.892Z,97867.50
2022-10-25T12:07:31.563Z,97868.38
2022-10-25T12:10:38.429Z,97862.94
2022-10-25T12:13:16.704Z,97861.78
2022-10-25T12:15:48.580Z,97864.72
2022-10-25T12:18:23.877Z,97860.22
2022-10-25T12:20:53.256Z,97864.25
2022-10-25T12:23:24.868Z,97858.25
2022-10-25T12:26:05.580Z,97861.59
2022-10-25T12:28:31.799Z,97861.94
2022-10-25T12:31:06.969Z,97855.47
2022-10-25T12:33:39.548Z,97857.88
2022-10-25T12:36:20.275Z,97857.66
2022-10-25T12:38:46.563Z,97847.44
2022-10-25T12:41:22.140Z,97844.38
2022-10-25T12:44:26.187Z,97843.97
2022-10-25T12:47:19.016Z,97844.44
2022-10-25T12:50:11.524Z,97848.00
2022-10-25T12:52:42.654Z,97845.66
2022-10-25T12:55:37.921Z,97838.09
2022-10-25T12:58:25.264Z,97843.38
2022-10-25T13:01:18.560Z,97841.56
2022-10-25T13:03:50.388Z,97846.06
2022-10-25T13:06:40.030Z,97844.94
2022-10-25T13:09:16.540Z,97849.19
2022-10-25T13:11:59.498Z,97846.09
2022-10-25T13:14:36.668Z,97845.16
2022-10-25T13:17:18.029Z,97839.59
2022-10-25T13:19:54.473Z,97843.25
2022-10-25T13:22:37.409Z,97838.06
2022-10-25T13:25:15.739Z,97844.56
2022-10-25T13:28:18.758Z,97846.81
2022-10-25T13:30:45.101Z,97836.63
2022-10-25T13:33:24.344Z,97840.97
2022-10-25T13:35:50.683Z,97841.75
2022-10-25T13:38:28.622Z,97838.88
2022-10-25T13:41:11.196Z,97831.59
2022-10-25T13:43:57.143Z,97829.91
2022-10-25T13:46:26.976Z,97832.84
2022-10-25T13:48:54.762Z,97827.72
2022-10-25T13:51:21.628Z,97831.28
2022-10-25T13:53:51.767Z,97836.94
2022-10-25T13:56:24.113Z,97825.56
2022-10-25T13:58:54.950Z,97820.53
2022-10-25T14:01:21.386Z,97817.81
2022-10-25T14:04:02.848Z,97821.25
2022-10-25T14:06:37.656Z,97820.78
2022-10-25T14:09:29.438Z,97812.16
2022-10-25T14:12:12.000Z,97812.28
2022-10-25T14:14:48.165Z,97809.22
2022-10-25T14:17:38.962Z,97806.75
2022-10-25T14:20:26.645Z,97803.06
2022-10-25T14:22:56.890Z,97817.00
2022-10-25T14:25:28.008Z,97813.53
2022-10-25T14:28:12.820Z,97810.16
2022-10-25T14:30:54.951Z,97815.44
2022-10-25T14:33:30.205Z,97806.56
2022-10-25T14:36:06.511Z,97806.75
2022-10-25T14:38:37.874Z,97800.69
2022-10-25T14:41:11.941Z,97803.59
2022-10-25T14:43:39.146Z,97803.31
2022-10-25T14:46:17.242Z,97810.56
2022-10-25T14:48:49.013Z,97810.69
2022-10-25T14:51:21.578Z,97810.34
2022-10-25T14:53:54.463Z,97801.16
2022-10-25T14:56:39.327Z,97808.84
2022-10-25T14:59:18.181Z,97804.38
2022-10-25T15:01:54.865Z,97796.50
2022-10-25T15:04:38.965Z,97801.38
2022-10-25T15:07:06.560Z,97800.47
2022-10-25T15:09:49.029Z,97800.13
2022-10-25T15:12:19.777Z,97797.97
2022-10-25T15:14:48.108Z,97803.00
2022-10-25T15:17:27.312Z,97790.53
2022-10-25T15:20:06.325Z,97790.81
2022-10-25T15:22:45.710Z,97785.19
2022-10-25T15:25:30.570Z,97791.50
2022-10-25T15:28:07.950Z,97796.81
2022-10-25T15:30:39.540Z,97799.34
2022-10-25T15:33:12.426Z,97788.81
2022-10-25T15:35:46.607Z,97793.50
2022-10-25T15:38:13.030Z,97792.03
2022-10-25T15:40:39.381Z,97789.66
2022-10-25T15:43:05.756Z,97788.84
2022-10-25T15:45:33.462Z,97786.88
2022-10-25T15:47:59.863Z,97789.78
2022-10-25T15:50:26.272Z,97794.22
2022-10-25T15:52:53.734Z,97790.56
2022-10-25T15:55:22.934Z,97791.34
2022-10-25T15:57:49.971Z,97787.84
2022-10-25T16:00:25.552Z,97791.72
2022-10-25T16:02:54.595Z,97793.91
2022-10-25T16:05:28.015Z,97791.38
2022-10-25T16:07:55.128Z,97797.22
2022-10-25T16:10:24.044Z,97795.66
2022-10-25T16:12:58.557Z,97796.50
2022-10-25T16:15:26.107Z,97793.22
2022-10-25T16:17:52.496Z,97798.72
2022-10-25T16:20:22.274Z,97796.88
2022-10-25T16:22:49.297Z,97792.69
2022-10-25T16:25:16.999Z,97799.13
2022-10-25T16:27:43.966Z,97797.97
2022-10-25T16:30:18.817Z,97793.50
2022-10-25T16:32:45.639Z,97783.88
2022-10-25T16:35:13.761Z,97799.78
2022-10-25T16:37:40.556Z,97798.84
2022-10-25T16:40:07.869Z,97799.81
2022-10-25T16:42:36.174Z,97803.81
2022-10-25T16:45:13.337Z,97805.09
2022-10-25T16:47:39.734Z,97818.59
2022-10-25T16:50:06.650Z,97821.81
2022-10-25T16:52:32.949Z,97810.28
2022-10-25T16:54:59.353Z,97809.94
2022-10-25T16:57:25.627Z,97798.75
2022-10-25T16:59:55.217Z,97802.16
2022-10-25T17:02:25.298Z,97802.69
2022-10-25T17:04:53.410Z,97800.63
2022-10-25T17:07:19.768Z,97807.09
2022-10-25T17:09:46.138Z,97804.06
2022-10-25T17:12:12.458Z,97807.41
2022-10-25T17:14:38.807Z,97807.19
2022-10-25T17:17:05.980Z,97813.47
2022-10-25T17:19:32.383Z,97808.09
2022-10-25T17:22:00.724Z,97806.41
2022-10-25T17:24:27.111Z,97809.59
2022-10-25T17:26:53.554Z,97811.94
2022-10-25T17:29:19.879Z,97812.53
2022-10-25T17:31:46.227Z,97812.28
2022-10-25T17:34:12.663Z,97821.31
2022-10-25T17:36:39.013Z,97818.38
2022-10-25T17:39:10.006Z,97818.06
2022-10-25T17:41:36.334Z,97812.50
2022-10-25T17:44:03.293Z,97807.97
2022-10-25T17:46:31.466Z,97815.25
2022-10-25T17:49:05.702Z,97821.44
2022-10-25T17:51:34.116Z,97820.84
2022-10-25T17:54:00.547Z,97820.84
2022-10-25T17:56:34.990Z,97815.44
2022-10-25T17:59:04.337Z,97815.59
2022-10-25T18:01:35.336Z,97807.88
2022-10-25T18:04:01.792Z,97804.72
2022-10-25T18:06:28.328Z,97807.63
2022-10-25T18:08:57.778Z,97802.56
2022-10-25T18:11:25.854Z,97817.41
2022-10-25T18:13:54.195Z,97807.44
2022-10-25T18:16:26.031Z,97812.56
2022-10-25T18:18:53.549Z,97812.25
2022-10-25T18:21:19.820Z,97802.88
2022-10-25T18:23:48.632Z,97804.59
2022-10-25T18:26:18.909Z,97803.78
2022-10-25T18:28:45.260Z,97807.75
2022-10-25T18:31:12.914Z,97801.53
2022-10-25T18:33:41.562Z,97797.25
2022-10-25T18:36:11.266Z,97797.25
2022-10-25T18:38:37.899Z,97813.28
2022-10-25T18:41:08.391Z,97810.63
2022-10-25T18:43:35.026Z,97799.31
2022-10-25T18:46:02.104Z,97802.34
2022-10-25T18:48:28.746Z,97802.00
2022-10-25T18:50:55.488Z,97804.84
2022-10-25T18:53:22.039Z,97804.84
2022-10-25T18:55:52.954Z,97801.00
2022-10-25T18:58:19.563Z,97802.53
2022-10-25T19:00:46.382Z,97806.13
2022-10-25T19:03:14.889Z,97795.66
2022-10-25T19:05:42.020Z,97794.97
2022-10-25T19:08:10.851Z,97794.06
2022-10-25T19:10:38.847Z,97796.56
2022-10-25T19:13:06.512Z,97794.13
2022-10-25T19:15:32.856Z,97785.59
2022-10-25T19:17:59.487Z,97789.53
2022-10-25T19:20:26.420Z,97784.09
2022-10-25T19:22:53.651Z,97786.09
2022-10-25T19:25:23.068Z,97782.63
2022-10-25T19:27:50.574Z,97788.09
2022-10-25T19:30:17.363Z,97796.00
2022-10-25T19:32:43.677Z,97783.22
2022-10-25T19:35:09.966Z,97780.47
2022-10-25T19:37:39.922Z,97775.00
2022-10-25T19:40:08.084Z,97775.03
2022-10-25T19:42:34.799Z,97774.72
2022-10-25T19:45:01.360Z,97775.50
2022-10-25T19:47:27.855Z,97777.50
2022-10-25T19:49:54.147Z,97764.28
2022-10-25T19:52:20.461Z,97768.94
2022-10-25T19:54:47.477Z,97770.66
2022-10-25T19:57:14.378Z,97767.41
2022-10-25T19:59:40.672Z,97766.72
2022-10-25T20:02:07.185Z,97762.75
2022-10-25T20:04:33.561Z,97758.47
2022-10-25T20:06:59.829Z,97760.06
2022-10-25T20:09:26.096Z,97757.75
2022-10-25T20:11:52.397Z,97762.50
2022-10-25T20:14:18.756Z,97759.78
2022-10-25T20:16:45.091Z,97764.47
2022-10-25T20:19:13.651Z,97759.09
2022-10-25T20:21:40.075Z,97770.09
2022-10-25T20:24:09.124Z,97770.41
2022-10-25T20:26:41.124Z,97772.41
2022-10-25T20:29:17.055Z,97772.47
2022-10-25T20:31:46.764Z,97777.91
2022-10-25T20:34:13.031Z,97783.41
2022-10-25T20:36:39.354Z,97775.97
2022-10-25T20:39:05.639Z,97785.03
2022-10-25T20:41:34.904Z,97780.31
2022-10-25T20:44:05.646Z,97775.59
2022-10-25T20:46:33.481Z,97782.66
2022-10-25T20:49:00.588Z,97781.47
2022-10-25T20:51:27.570Z,97781.91
2022-10-25T20:53:54.357Z,97779.56
2022-10-25T20:56:21.553Z,97780.34
2022-10-25T20:58:48.125Z,97783.06
2022-10-25T21:01:14.743Z,97786.59
2022-10-25T21:03:41.751Z,97781.47
2022-10-25T21:06:10.453Z,97774.78
2022-10-25T21:08:37.670Z,97782.59
2022-10-25T21:11:06.406Z,97771.72
2022-10-25T21:13:34.598Z,97763.16
2022-10-25T21:16:11.661Z,97760.03
2022-10-25T21:18:38.439Z,97760.06
2022-10-25T21:21:11.412Z,97767.50
2022-10-25T21:23:37.824Z,97757.75
2022-10-25T21:26:07.451Z,97763.59
2022-10-25T21:28:36.224Z,97763.22
2022-10-25T21:31:04.358Z,97765.16
2022-10-25T21:33:30.687Z,97751.09
2022-10-25T21:36:14.289Z,97749.94
2022-10-25T21:38:41.919Z,97750.28
2022-10-25T21:41:16.312Z,97738.97
2022-10-25T21:43:45.007Z,97737.38
2022-10-25T21:46:12.415Z,97738.97
2022-10-25T21:48:38.835Z,97748.34
2022-10-25T21:51:05.247Z,97740.22
2022-10-25T21:53:31.992Z,97742.94
2022-10-25T21:56:12.988Z,97733.50
2022-10-25T21:58:40.866Z,97739.03
2022-10-25T22:01:15.792Z,97738.19
2022-10-25T22:03:42.488Z,97735.09
2022-10-25T22:06:10.566Z,97738.97
2022-10-25T22:08:37.235Z,97733.16
2022-10-25T22:11:14.328Z,97731.19
2022-10-25T22:13:40.793Z,97735.50
2022-10-25T22:16:18.257Z,97734.28
2022-10-25T22:18:54.664Z,97726.50
2022-10-25T22:21:21.402Z,97723.34
2022-10-25T22:23:47.960Z,97734.25
2022-10-25T22:26:16.563Z,97724.88
2022-10-25T22:28:43.063Z,97728.78
2022-10-25T22:31:14.840Z,97720.97
2022-10-25T22:33:42.420Z,97712.00
2022-10-25T22:36:15.671Z,97720.63
2022-10-25T22:38:42.366Z,97724.91
2022-10-25T22:41:13.942Z,97725.69
2022-10-25T22:43:41.414Z,97731.59
2022-10-25T22:46:11.296Z,97732.00
2022-10-25T22:48:39.372Z,97719.53
2022-10-25T22:51:06.095Z,97722.72
2022-10-25T22:53:34.789Z,97723.50
2022-10-25T22:56:04.029Z,97719.63
2022-10-25T22:58:34.580Z,97726.63
2022-10-25T23:01:12.896Z,97729.75
2022-10-25T23:03:41.605Z,97731.78
2022-10-25T23:06:11.899Z,97737.56
2022-10-25T23:08:38.290Z,97732.09
2022-10-25T23:11:07.402Z,97733.25
2022-10-25T23:13:35.835Z,97736.72
2022-10-25T23:16:03.621Z,97739.81
2022-10-25T23:18:30.356Z,97733.66
2022-10-25T23:20:58.852Z,97733.59
2022-10-25T23:23:26.426Z,97730.47
2022-10-25T23:25:54.333Z,97732.00
2022-10-25T23:28:21.164Z,97728.03
2022-10-25T23:30:50.052Z,97728.78
2022-10-25T23:33:17.540Z,97737.38
2022-10-25T23:35:43.862Z,97739.66
2022-10-25T23:38:13.510Z,97738.09
2022-10-25T23:40:40.732Z,97750.53
2022-10-25T23:43:07.108Z,97752.50
2022-10-25T23:45:33.421Z,97757.56
2022-10-25T23:47:59.704Z,97751.34
2022-10-25T23:50:26.030Z,97745.84
2022-10-25T23:52:52.454Z,97732.97
2022-10-25T23:55:18.888Z,97717.78
2022-10-25T23:57:45.256Z,97723.25
